Аэропорт
Международный аэропорт Тэгу (RKTN)

 RKTN / TAE

Korea, Republic of
KR-27
Тэгу
 35.89410, 128.65900  / 116 ft

 RKTN 201600Z 12002KT CAVOK 02/M04 Q1035
 TAF RKTN 201100Z 2012/2118 31006KT 9999 SCT040 SCT200 TN00/2021Z TX15/2106Z BECMG 2113/2114 27006KT SCT040 BKN100

2020 © VATRUS division (Privacy Policy)